Terminal Aerodrome Forecast
Issued by NWS Atlanta, GA

Home | Current Version | Previous Version | Text Only | Print | Product List | Glossary On
Versions: 1 2 3 4 5 6 7 8 9 10 11 12 13 14 15
270
FTUS42 KFFC 241128
TAFCSG
TAF
KCSG 241128Z 2412/2512 05003KT P6SM BKN150
     FM241600 08010KT P6SM SCT050 BKN200
     FM250100 00000KT P6SM SCT250=

USA.gov is the U.S. government's official web portal to all federal, state and local government web resources and services.